CMA CGM Kingfish — A8YW9 — position and weather

sailwx.info

Track history (hours):
 
Tides and Currents Weather Stations Pressure Air Temp Water Temp Dewpoint Dewpoint Depression Visibility Wind Speed Wind Dir Waves Ship Positions

CMA CGM Kingfish

Last reported at 2015-May-04 18:16 UTC. Time now 2015-May-06 00:22 UTC.
Position N 35°57' W 005°34'.

Length 294 m; draft 12.2 m.

Type: Ship (hazmat cat A). MMSI: 636015147.

Date/timePositionNaut miles runAvg speedWind from/ knotsBaromVisibWave heightAir tempDewpointWater temp
2015-May-04 18:16N 35°57' W 005°34'1014.7
2015-May-04 17:33N 36°01' W 005°22'7217.7
2015-May-04 13:31N 36°08' W 003°54'1718.3
2015-May-04 12:33N 36°09' W 003°33'1818.2
2015-May-04 11:33N 36°10' W 003°10'1918.4
2015-May-04 10:31N 36°13' W 002°47'1818.3
2015-May-04 09:33N 36°16' W 002°25'1818.1
2015-May-04 08:34N 36°20' W 002°03'1917.7
2015-May-04 07:29N 36°23' W 001°40'1717.9
2015-May-04 06:33N 36°27' W 001°20'1818.2
2015-May-04 05:33N 36°31' W 000°58'1818.0
2015-May-04 04:33N 36°35' W 000°36'1918.5
2015-May-04 03:33N 36°38' W 000°13'1818.0
2015-May-04 02:33N 36°41' E 000°09'1818.2
2015-May-04 01:33N 36°45' E 000°31'13218.1
2015-May-03 18:16N 37°09' E 003°14'1318.1
2015-May-03 17:33N 37°10' E 003°30'1818.0
2015-May-03 16:33N 37°13' E 003°52'2018.1
2015-May-03 15:28N 37°15' E 004°17'1718.1
2015-May-03 14:33N 37°17' E 004°38'1818.1
2015-May-03 13:32N 37°19' E 005°00'1818.3
2015-May-03 12:33N 37°22' E 005°23'1918.2
2015-May-03 11:31N 37°24' E 005°46'1717.7
2015-May-03 10:33N 37°27' E 006°07'24517.5
2015-May-02 20:32N 37°25' E 011°17'1717.5
2015-May-02 19:33N 37°17' E 011°36'1817.8
2015-May-02 18:33N 37°10' E 011°56'1817.8
2015-May-02 17:33N 37°02' E 012°16'1817.8
2015-May-02 16:33N 36°54' E 012°36'1817.8
2015-May-02 15:33N 36°46' E 012°56'1817.9
2015-May-02 14:33N 36°39' E 013°16'1817.9
2015-May-02 13:33N 36°31' E 013°36'1817.8
2015-May-02 12:33N 36°23' E 013°56'1817.9
2015-May-02 11:33N 36°15' E 014°16'1817.6
2015-May-02 10:33N 36°09' E 014°36'1717.3
2015-May-02 09:33N 36°03' E 014°57'1917.6
2015-May-02 08:28N 35°58' E 015°20'1617.4
2015-May-02 07:33N 35°53' E 015°38'1817.7
2015-May-02 06:33N 35°48' E 015°59'1817.7
2015-May-02 05:33N 35°43' E 016°20'1817.8
2015-May-02 04:33N 35°38' E 016°41'1817.8
2015-May-02 03:33N 35°33' E 017°02'1817.8
2015-May-02 02:33N 35°28' E 017°23'9517.7
2015-May-01 21:13N 35°01' E 019°14'1217.8
2015-May-01 20:33N 34°57' E 019°28'59717.8
2015-Apr-30 11:03N 32°06' E 030°53'4417.5
2015-Apr-30 08:33N 31°46' E 031°39'19 3.7
2015-Apr-30 03:20N 31°28' E 031°45'0 0.0
2015-Apr-29 21:05N 31°28' E 031°45'0 0.0
2015-Apr-29 20:32N 31°28' E 031°45'0 0.0
2015-Apr-29 19:32N 31°28' E 031°45'0 0.0
2015-Apr-29 18:32N 31°28' E 031°45'0 0.0
2015-Apr-29 17:29N 31°28' E 031°45'1 1.3
2015-Apr-29 16:24N 31°29' E 031°45'9 9.9
2015-Apr-29 15:27N 31°38' E 031°48'3 3.0
2015-Apr-29 14:33N 31°40' E 031°50'1513.7
2015-Apr-29 13:26N 31°38' E 032°08'1111.2
2015-Apr-29 12:29N 31°32' E 032°19'1010.2
2015-Apr-29 11:33N 31°23' E 032°23'1212.0
2015-Apr-29 10:32N 31°11' E 032°20'38 9.3
2015-Apr-29 06:29N 30°34' E 032°18'9 7.9
2015-Apr-29 05:20N 30°25' E 032°22'75016.3
2015-Apr-27 07:19N 19°35' E 039°15'  
Track history (hours):
 
Tides and Currents Weather Stations Pressure Air Temp Water Temp Dewpoint Dewpoint Depression Visibility Wind Speed Wind Dir Waves Ship Positions

CMA CGM Kingfish

Last reported at 2015-May-04 18:16 UTC. Time now 2015-May-06 00:22 UTC.
Position N 35°57' W 005°34'.

Length 294 m; draft 12.2 m.

Type: Ship (hazmat cat A). MMSI: 636015147.

Date/timePositionNaut miles runAvg speedWind from/ knotsBaromVisibWave heightAir tempDewpointWater temp
2015-May-04 18:16N 35°57' W 005°34'1014.7
2015-May-04 17:33N 36°01' W 005°22'7217.7
2015-May-04 13:31N 36°08' W 003°54'1718.3
2015-May-04 12:33N 36°09' W 003°33'1818.2
2015-May-04 11:33N 36°10' W 003°10'1918.4
2015-May-04 10:31N 36°13' W 002°47'1818.3
2015-May-04 09:33N 36°16' W 002°25'1818.1
2015-May-04 08:34N 36°20' W 002°03'1917.7
2015-May-04 07:29N 36°23' W 001°40'1717.9
2015-May-04 06:33N 36°27' W 001°20'1818.2
2015-May-04 05:33N 36°31' W 000°58'1818.0
2015-May-04 04:33N 36°35' W 000°36'1918.5
2015-May-04 03:33N 36°38' W 000°13'1818.0
2015-May-04 02:33N 36°41' E 000°09'1818.2
2015-May-04 01:33N 36°45' E 000°31'13218.1
2015-May-03 18:16N 37°09' E 003°14'1318.1
2015-May-03 17:33N 37°10' E 003°30'1818.0
2015-May-03 16:33N 37°13' E 003°52'2018.1
2015-May-03 15:28N 37°15' E 004°17'1718.1
2015-May-03 14:33N 37°17' E 004°38'1818.1
2015-May-03 13:32N 37°19' E 005°00'1818.3
2015-May-03 12:33N 37°22' E 005°23'1918.2
2015-May-03 11:31N 37°24' E 005°46'1717.7
2015-May-03 10:33N 37°27' E 006°07'24517.5
2015-May-02 20:32N 37°25' E 011°17'1717.5
2015-May-02 19:33N 37°17' E 011°36'1817.8
2015-May-02 18:33N 37°10' E 011°56'1817.8
2015-May-02 17:33N 37°02' E 012°16'1817.8
2015-May-02 16:33N 36°54' E 012°36'1817.8
2015-May-02 15:33N 36°46' E 012°56'1817.9
2015-May-02 14:33N 36°39' E 013°16'1817.9
2015-May-02 13:33N 36°31' E 013°36'1817.8
2015-May-02 12:33N 36°23' E 013°56'1817.9
2015-May-02 11:33N 36°15' E 014°16'1817.6
2015-May-02 10:33N 36°09' E 014°36'1717.3
2015-May-02 09:33N 36°03' E 014°57'1917.6
2015-May-02 08:28N 35°58' E 015°20'1617.4
2015-May-02 07:33N 35°53' E 015°38'1817.7
2015-May-02 06:33N 35°48' E 015°59'1817.7
2015-May-02 05:33N 35°43' E 016°20'1817.8
2015-May-02 04:33N 35°38' E 016°41'1817.8
2015-May-02 03:33N 35°33' E 017°02'1817.8
2015-May-02 02:33N 35°28' E 017°23'9517.7
2015-May-01 21:13N 35°01' E 019°14'1217.8
2015-May-01 20:33N 34°57' E 019°28'59717.8
2015-Apr-30 11:03N 32°06' E 030°53'4417.5
2015-Apr-30 08:33N 31°46' E 031°39'19 3.7
2015-Apr-30 03:20N 31°28' E 031°45'0 0.0
2015-Apr-29 21:05N 31°28' E 031°45'0 0.0
2015-Apr-29 20:32N 31°28' E 031°45'0 0.0
2015-Apr-29 19:32N 31°28' E 031°45'0 0.0
2015-Apr-29 18:32N 31°28' E 031°45'0 0.0
2015-Apr-29 17:29N 31°28' E 031°45'1 1.3
2015-Apr-29 16:24N 31°29' E 031°45'9 9.9
2015-Apr-29 15:27N 31°38' E 031°48'3 3.0
2015-Apr-29 14:33N 31°40' E 031°50'1513.7
2015-Apr-29 13:26N 31°38' E 032°08'1111.2
2015-Apr-29 12:29N 31°32' E 032°19'1010.2
2015-Apr-29 11:33N 31°23' E 032°23'1212.0
2015-Apr-29 10:32N 31°11' E 032°20'38 9.3
2015-Apr-29 06:29N 30°34' E 032°18'9 7.9
2015-Apr-29 05:20N 30°25' E 032°22'75016.3
2015-Apr-27 07:19N 19°35' E 039°15'  

Dump ship's entire track history